createdAt,value
2017-06-20T00:01:41.008Z,81.10
2017-06-20T00:04:07.323Z,81.30
2017-06-20T00:06:33.653Z,81.80
2017-06-20T00:08:59.968Z,81.70
2017-06-20T00:11:26.258Z,81.80
2017-06-20T00:13:52.820Z,81.90
2017-06-20T00:16:19.866Z,82.50
2017-06-20T00:18:46.913Z,82.80
2017-06-20T00:21:13.217Z,82.80
2017-06-20T00:23:39.506Z,83.00
2017-06-20T00:26:06.092Z,83.20
2017-06-20T00:28:32.410Z,83.50
2017-06-20T00:30:58.730Z,83.70
2017-06-20T00:33:25.053Z,83.80
2017-06-20T00:35:51.333Z,84.00
2017-06-20T00:38:18.611Z,84.40
2017-06-20T00:40:44.910Z,84.30
2017-06-20T00:43:12.114Z,84.80
2017-06-20T00:45:39.395Z,85.00
2017-06-20T00:48:05.715Z,85.10
2017-06-20T00:50:32.262Z,85.20
2017-06-20T00:52:58.553Z,85.20
2017-06-20T00:55:24.866Z,85.30
2017-06-20T00:57:51.181Z,85.30
2017-06-20T01:00:17.473Z,85.40
2017-06-20T01:02:44.041Z,85.50
2017-06-20T01:05:10.373Z,85.40
2017-06-20T01:07:36.681Z,85.50
2017-06-20T01:10:03.001Z,85.50
2017-06-20T01:12:29.280Z,85.40
2017-06-20T01:14:55.803Z,85.20
2017-06-20T01:17:22.100Z,85.10
2017-06-20T01:19:48.449Z,85.20
2017-06-20T01:22:15.504Z,86.20
2017-06-20T01:24:41.810Z,85.80
2017-06-20T01:27:08.346Z,85.90
2017-06-20T01:29:34.649Z,85.90
2017-06-20T01:32:00.995Z,85.70
2017-06-20T01:34:27.343Z,85.90
2017-06-20T01:36:54.426Z,87.00
2017-06-20T01:39:21.116Z,86.50
2017-06-20T01:41:47.466Z,86.60
2017-06-20T01:44:13.802Z,87.00
2017-06-20T01:46:40.158Z,87.00
2017-06-20T01:49:06.489Z,87.00
2017-06-20T01:51:33.167Z,87.20
2017-06-20T01:53:59.485Z,87.40
2017-06-20T01:56:25.818Z,87.70
2017-06-20T01:58:52.160Z,88.10
2017-06-20T02:01:18.544Z,88.40
2017-06-20T02:03:45.102Z,88.60
2017-06-20T02:06:11.467Z,88.70
2017-06-20T02:08:37.797Z,89.00
2017-06-20T02:11:04.166Z,89.20
2017-06-20T02:13:30.496Z,89.40
2017-06-20T02:15:57.113Z,89.60
2017-06-20T02:18:24.172Z,89.80
2017-06-20T02:20:51.249Z,90.00
2017-06-20T02:23:18.354Z,90.00
2017-06-20T02:25:44.774Z,90.00
2017-06-20T02:28:11.335Z,90.00
2017-06-20T02:30:37.711Z,90.10
2017-06-20T02:33:04.021Z,90.10
2017-06-20T02:35:30.332Z,90.10
2017-06-20T02:37:57.404Z,90.30
2017-06-20T02:40:23.941Z,90.20
2017-06-20T02:42:50.259Z,90.30
2017-06-20T02:45:16.567Z,90.40
2017-06-20T02:47:43.637Z,90.50
2017-06-20T02:50:10.377Z,90.50
2017-06-20T02:52:36.669Z,90.50
2017-06-20T02:55:02.997Z,90.50
2017-06-20T02:57:29.293Z,90.60
2017-06-20T02:59:55.638Z,90.70
2017-06-20T03:02:22.164Z,90.80
2017-06-20T03:04:48.505Z,90.80
2017-06-20T03:07:14.807Z,90.80
2017-06-20T03:09:41.433Z,90.90
2017-06-20T03:12:07.754Z,91.00
2017-06-20T03:14:34.046Z,91.00
2017-06-20T03:17:00.377Z,91.10
2017-06-20T03:19:26.687Z,91.20
2017-06-20T03:21:53.330Z,91.20
2017-06-20T03:24:19.617Z,91.20
2017-06-20T03:26:45.921Z,91.30
2017-06-20T03:29:12.985Z,91.40
2017-06-20T03:31:39.345Z,91.30
2017-06-20T03:34:05.895Z,91.50
2017-06-20T03:36:32.251Z,91.60
2017-06-20T03:38:58.547Z,91.60
2017-06-20T03:41:24.879Z,91.60
2017-06-20T03:43:51.213Z,91.60
2017-06-20T03:46:17.861Z,91.50
2017-06-20T03:48:44.176Z,91.50
2017-06-20T03:51:10.470Z,91.40
2017-06-20T03:53:36.775Z,91.40
2017-06-20T03:56:03.082Z,91.40
2017-06-20T03:58:29.674Z,91.40
2017-06-20T04:00:55.968Z,91.40
2017-06-20T04:03:22.252Z,91.30
2017-06-20T04:05:48.572Z,91.40
2017-06-20T04:08:14.894Z,91.40
2017-06-20T04:10:41.581Z,91.30
2017-06-20T04:13:07.900Z,91.30
2017-06-20T04:15:34.214Z,91.20
2017-06-20T04:18:00.533Z,91.20
2017-06-20T04:20:26.867Z,91.10
2017-06-20T04:22:53.184Z,91.40
2017-06-20T04:25:19.493Z,91.00
2017-06-20T04:27:46.191Z,91.00
2017-06-20T04:30:12.488Z,91.20
2017-06-20T04:32:38.807Z,90.90
2017-06-20T04:35:05.171Z,90.90
2017-06-20T04:37:31.462Z,90.80
2017-06-20T04:39:58.799Z,90.60
2017-06-20T04:42:25.107Z,90.60
2017-06-20T04:44:51.402Z,90.50
2017-06-20T04:47:17.707Z,90.50
2017-06-20T04:49:44.029Z,90.50
2017-06-20T04:52:10.844Z,90.50
2017-06-20T04:54:37.124Z,90.50
2017-06-20T04:57:03.405Z,90.50
2017-06-20T04:59:29.733Z,90.50
2017-06-20T05:01:56.029Z,90.40
2017-06-20T05:04:22.584Z,90.50
2017-06-20T05:06:48.913Z,90.40
2017-06-20T05:09:15.233Z,90.20
2017-06-20T05:11:41.574Z,90.00
2017-06-20T05:14:07.883Z,89.90
2017-06-20T05:16:34.491Z,90.00
2017-06-20T05:19:00.772Z,90.00
2017-06-20T05:21:27.092Z,90.10
2017-06-20T05:23:53.442Z,89.60
2017-06-20T05:26:19.757Z,89.50
2017-06-20T05:28:46.343Z,89.20
2017-06-20T05:31:13.443Z,88.70
2017-06-20T05:33:39.781Z,88.70
2017-06-20T05:36:06.098Z,88.10
2017-06-20T05:38:32.396Z,87.80
2017-06-20T05:40:59.086Z,87.30
2017-06-20T05:43:25.383Z,87.10
2017-06-20T05:45:51.691Z,86.90
2017-06-20T05:48:18.020Z,87.00
2017-06-20T05:50:44.335Z,86.80
2017-06-20T05:53:10.988Z,87.50
2017-06-20T05:55:37.301Z,86.90
2017-06-20T05:58:03.628Z,86.60
2017-06-20T06:00:29.970Z,86.80
2017-06-20T06:02:56.296Z,86.20
2017-06-20T06:05:23.719Z,85.80
2017-06-20T06:07:50.032Z,85.60
2017-06-20T06:10:16.353Z,86.30
2017-06-20T06:12:42.680Z,85.70
2017-06-20T06:15:08.978Z,85.50
2017-06-20T06:17:36.326Z,85.20
2017-06-20T06:20:03.369Z,84.30
2017-06-20T06:22:29.722Z,84.30
2017-06-20T06:24:56.480Z,84.10
2017-06-20T06:27:22.900Z,83.50
2017-06-20T06:29:49.520Z,83.50
2017-06-20T06:32:15.861Z,83.60
2017-06-20T06:34:42.954Z,83.10
2017-06-20T06:37:09.329Z,83.00
2017-06-20T06:39:35.701Z,82.30
2017-06-20T06:42:02.331Z,81.10
2017-06-20T06:44:28.666Z,80.70
2017-06-20T06:46:55.013Z,80.90
2017-06-20T06:49:21.361Z,80.20
2017-06-20T06:51:47.805Z,78.70
2017-06-20T06:54:14.551Z,78.00
2017-06-20T06:56:40.857Z,77.60
2017-06-20T06:59:07.216Z,75.70
2017-06-20T07:01:33.559Z,74.30
2017-06-20T07:03:59.921Z,74.70
2017-06-20T07:06:26.619Z,74.40
2017-06-20T07:08:53.773Z,72.10
2017-06-20T07:11:20.171Z,72.10
2017-06-20T07:13:46.544Z,71.40
2017-06-20T07:16:12.903Z,71.30
2017-06-20T07:18:39.223Z,70.80
2017-06-20T07:21:05.814Z,70.40
2017-06-20T07:23:32.142Z,70.30
2017-06-20T07:25:59.253Z,69.10
2017-06-20T07:28:25.907Z,68.20
2017-06-20T07:30:52.248Z,64.80
2017-06-20T07:33:18.643Z,64.10
2017-06-20T07:35:45.318Z,63.70
2017-06-20T07:38:11.627Z,62.80
2017-06-20T07:40:38.072Z,63.10
2017-06-20T07:43:04.454Z,62.70
2017-06-20T07:45:30.778Z,62.20
2017-06-20T07:47:57.496Z,60.60
2017-06-20T07:50:24.622Z,61.20
2017-06-20T07:52:50.969Z,61.10
2017-06-20T07:55:18.082Z,59.90
2017-06-20T07:57:44.465Z,59.90
2017-06-20T08:00:11.280Z,59.60
2017-06-20T08:02:37.646Z,59.20
2017-06-20T08:05:04.043Z,59.70
2017-06-20T08:07:31.124Z,57.20
2017-06-20T08:09:57.469Z,57.10
2017-06-20T08:12:24.129Z,57.00
2017-06-20T08:14:50.489Z,57.70
2017-06-20T08:17:16.876Z,57.40
2017-06-20T08:19:43.377Z,57.90
2017-06-20T08:22:10.733Z,56.00
2017-06-20T08:24:37.451Z,56.60
2017-06-20T08:27:03.788Z,55.60
2017-06-20T08:29:30.178Z,54.90
2017-06-20T08:31:56.545Z,54.70
2017-06-20T08:34:22.888Z,53.90
2017-06-20T08:36:49.503Z,53.20
2017-06-20T08:39:18.792Z,52.50
2017-06-20T08:41:45.872Z,52.20
2017-06-20T08:44:12.310Z,52.00
2017-06-20T08:46:38.677Z,51.50
2017-06-20T08:49:05.327Z,51.70
2017-06-20T08:51:32.428Z,51.00
2017-06-20T08:53:58.797Z,51.20
2017-06-20T08:56:25.933Z,51.40
2017-06-20T08:58:52.270Z,50.80
2017-06-20T09:01:18.919Z,50.30
2017-06-20T09:03:46.033Z,50.10
2017-06-20T09:06:12.364Z,49.40
2017-06-20T09:08:38.717Z,49.50
2017-06-20T09:11:05.074Z,49.50
2017-06-20T09:13:31.787Z,50.50
2017-06-20T09:15:58.200Z,50.60
2017-06-20T09:18:24.542Z,49.10
2017-06-20T09:20:51.009Z,48.70
2017-06-20T09:23:17.417Z,48.90
2017-06-20T09:25:45.009Z,48.90
2017-06-20T09:28:11.351Z,48.90
2017-06-20T09:30:37.693Z,48.30
2017-06-20T09:33:04.070Z,48.60
2017-06-20T09:35:31.164Z,47.70
2017-06-20T09:37:59.344Z,47.60
2017-06-20T09:40:29.480Z,47.10
2017-06-20T09:42:56.038Z,47.80
2017-06-20T09:45:27.377Z,48.30
2017-06-20T09:47:54.469Z,47.20
2017-06-20T09:50:21.137Z,46.50
2017-06-20T09:52:47.497Z,46.70
2017-06-20T09:55:25.372Z,46.80
2017-06-20T09:57:51.792Z,46.80
2017-06-20T10:00:18.188Z,47.20
2017-06-20T10:02:44.550Z,46.70
2017-06-20T10:05:10.908Z,45.80
2017-06-20T10:07:37.583Z,44.80
2017-06-20T10:10:03.917Z,44.20
2017-06-20T10:12:30.303Z,44.10
2017-06-20T10:14:57.429Z,43.80
2017-06-20T10:17:23.775Z,43.70
2017-06-20T10:19:50.777Z,43.70
2017-06-20T10:22:17.141Z,43.70
2017-06-20T10:24:43.474Z,43.20
2017-06-20T10:27:09.822Z,42.50
2017-06-20T10:29:36.933Z,41.40
2017-06-20T10:32:03.599Z,41.40
2017-06-20T10:34:29.991Z,40.00
2017-06-20T10:36:56.388Z,38.50
2017-06-20T10:39:22.754Z,38.20
2017-06-20T10:41:49.101Z,38.00
2017-06-20T10:44:15.753Z,39.10
2017-06-20T10:46:42.092Z,39.10
2017-06-20T10:49:08.453Z,38.70
2017-06-20T10:51:34.799Z,38.70
2017-06-20T10:54:01.199Z,39.60
2017-06-20T10:56:27.785Z,38.50
2017-06-20T10:58:54.133Z,38.00
2017-06-20T11:01:20.468Z,37.30
2017-06-20T11:03:46.844Z,36.80
2017-06-20T11:06:13.207Z,36.00
2017-06-20T11:08:39.809Z,36.30
2017-06-20T11:11:06.220Z,36.70
2017-06-20T11:13:32.562Z,36.60
2017-06-20T11:15:58.931Z,36.90
2017-06-20T11:18:25.348Z,37.20
2017-06-20T11:20:51.985Z,37.90
2017-06-20T11:23:18.323Z,38.80
2017-06-20T11:25:44.668Z,39.70
2017-06-20T11:28:11.048Z,40.60
2017-06-20T11:30:37.398Z,41.10
2017-06-20T11:33:04.059Z,42.00
2017-06-20T11:35:30.427Z,42.80
2017-06-20T11:37:56.798Z,43.20
2017-06-20T11:40:23.371Z,43.10
2017-06-20T11:42:49.853Z,43.40
2017-06-20T11:45:16.522Z,43.40
2017-06-20T11:47:42.978Z,42.80
2017-06-20T11:50:09.364Z,41.80
2017-06-20T11:52:35.755Z,41.50
2017-06-20T11:55:02.070Z,40.90
2017-06-20T11:57:29.657Z,39.30
2017-06-20T11:59:56.130Z,38.50
2017-06-20T12:02:22.535Z,38.50
2017-06-20T12:04:48.914Z,36.90
2017-06-20T12:07:16.008Z,35.30
2017-06-20T12:09:42.669Z,35.30
2017-06-20T12:12:09.050Z,36.60
2017-06-20T12:14:35.392Z,38.50
2017-06-20T12:17:01.767Z,39.30
2017-06-20T12:19:28.191Z,39.60
2017-06-20T12:21:54.579Z,39.80
2017-06-20T12:24:20.929Z,39.60
2017-06-20T12:26:47.533Z,38.30
2017-06-20T12:29:13.913Z,37.60
2017-06-20T12:31:40.276Z,36.90
2017-06-20T12:34:07.443Z,33.90
2017-06-20T12:36:33.869Z,33.90
2017-06-20T12:39:00.599Z,34.70
2017-06-20T12:41:26.976Z,35.70
2017-06-20T12:43:53.343Z,37.10
2017-06-20T12:46:20.431Z,39.10
2017-06-20T12:48:46.773Z,39.10
2017-06-20T12:51:13.144Z,40.00
2017-06-20T12:53:40.247Z,40.80
2017-06-20T12:56:06.578Z,41.20
2017-06-20T12:58:32.959Z,41.60
2017-06-20T13:00:59.295Z,42.00
2017-06-20T13:03:26.006Z,40.90
2017-06-20T13:05:52.349Z,39.70
2017-06-20T13:08:18.698Z,38.20
2017-06-20T13:10:45.051Z,37.20
2017-06-20T13:13:11.406Z,35.80
2017-06-20T13:15:38.055Z,34.80
2017-06-20T13:18:04.444Z,34.80
2017-06-20T13:20:30.880Z,34.40
2017-06-20T13:22:57.241Z,33.10
2017-06-20T13:25:23.659Z,33.20
2017-06-20T13:27:50.294Z,33.40
2017-06-20T13:30:16.648Z,31.90
2017-06-20T13:32:42.990Z,32.60
2017-06-20T13:35:09.401Z,32.00
2017-06-20T13:37:35.778Z,31.20
2017-06-20T13:40:02.172Z,30.40
2017-06-20T13:42:28.517Z,30.20
2017-06-20T13:44:55.213Z,29.10
2017-06-20T13:47:21.569Z,28.00
2017-06-20T13:49:47.951Z,28.40
2017-06-20T13:52:14.311Z,29.20
2017-06-20T13:54:40.700Z,29.30
2017-06-20T13:57:07.141Z,29.70
2017-06-20T13:59:33.506Z,29.40
2017-06-20T14:02:00.159Z,30.50
2017-06-20T14:04:26.544Z,31.60
2017-06-20T14:06:52.895Z,33.20
2017-06-20T14:09:19.320Z,34.60
2017-06-20T14:11:45.641Z,36.40
2017-06-20T14:14:12.087Z,37.80
2017-06-20T14:16:38.439Z,38.90
2017-06-20T14:19:05.288Z,40.10
2017-06-20T14:21:32.445Z,41.70
2017-06-20T14:23:59.524Z,42.30
2017-06-20T14:26:25.900Z,42.30
2017-06-20T14:28:53.007Z,43.80
2017-06-20T14:31:19.358Z,43.80
2017-06-20T14:33:45.735Z,44.30
2017-06-20T14:36:12.440Z,46.20
2017-06-20T14:38:38.811Z,48.50
2017-06-20T14:41:05.223Z,48.90
2017-06-20T14:43:32.647Z,49.60
2017-06-20T14:46:00.482Z,52.60
2017-06-20T14:48:27.154Z,52.60
2017-06-20T14:50:53.559Z,55.30
2017-06-20T14:53:19.933Z,58.20
2017-06-20T14:55:46.338Z,59.20
2017-06-20T14:58:12.744Z,59.70
2017-06-20T15:00:39.117Z,59.80
2017-06-20T15:03:05.515Z,58.00
2017-06-20T15:05:32.218Z,55.60
2017-06-20T15:07:58.570Z,53.50
2017-06-20T15:10:24.960Z,50.20
2017-06-20T15:12:52.080Z,44.70
2017-06-20T15:15:18.435Z,44.60
2017-06-20T15:17:45.556Z,40.90
2017-06-20T15:20:12.049Z,40.90
2017-06-20T15:22:38.623Z,39.70
2017-06-20T15:25:04.958Z,39.90
2017-06-20T15:27:31.310Z,40.80
2017-06-20T15:29:57.655Z,39.90
2017-06-20T15:32:24.005Z,38.20
2017-06-20T15:34:50.672Z,37.80
2017-06-20T15:37:16.999Z,37.80
2017-06-20T15:39:43.370Z,38.60
2017-06-20T15:42:09.762Z,37.80
2017-06-20T15:44:36.352Z,36.50
2017-06-20T15:47:02.708Z,36.60
2017-06-20T15:49:29.055Z,37.70
2017-06-20T15:51:55.773Z,38.80
2017-06-20T15:54:22.116Z,38.70
2017-06-20T15:56:48.476Z,39.70
2017-06-20T15:59:15.612Z,42.70
2017-06-20T16:01:41.926Z,42.60
2017-06-20T16:04:08.296Z,44.80
2017-06-20T16:06:34.680Z,44.90
2017-06-20T16:09:01.062Z,47.60
2017-06-20T16:11:27.419Z,50.10
2017-06-20T16:13:53.752Z,50.40
2017-06-20T16:16:20.108Z,49.00
2017-06-20T16:18:46.477Z,47.50
2017-06-20T16:21:13.186Z,46.90
2017-06-20T16:23:40.265Z,45.50
2017-06-20T16:26:06.631Z,45.30
2017-06-20T16:28:32.991Z,44.80
2017-06-20T16:30:59.364Z,44.40
2017-06-20T16:33:25.698Z,44.00
2017-06-20T16:35:52.076Z,43.90
2017-06-20T16:38:18.658Z,43.90
2017-06-20T16:40:45.150Z,44.00
2017-06-20T16:43:11.498Z,44.30
2017-06-20T16:45:38.626Z,43.20
2017-06-20T16:48:05.980Z,42.30
2017-06-20T16:50:32.369Z,42.30
2017-06-20T16:52:58.756Z,41.40
2017-06-20T16:55:25.478Z,40.70
2017-06-20T16:57:51.829Z,40.90
2017-06-20T17:00:18.184Z,41.20
2017-06-20T17:02:52.197Z,40.80
2017-06-20T17:05:18.631Z,40.90
2017-06-20T17:07:44.988Z,40.70
2017-06-20T17:10:11.343Z,40.30
2017-06-20T17:12:38.670Z,40.20
2017-06-20T17:15:05.034Z,40.10
2017-06-20T17:17:31.403Z,40.20
2017-06-20T17:19:57.869Z,40.30
2017-06-20T17:22:24.226Z,40.80
2017-06-20T17:24:51.325Z,41.20
2017-06-20T17:27:17.743Z,41.20
2017-06-20T17:29:44.312Z,41.90
2017-06-20T17:32:10.702Z,42.70
2017-06-20T17:34:37.104Z,43.30
2017-06-20T17:37:03.497Z,43.90
2017-06-20T17:39:29.913Z,44.30
2017-06-20T17:41:56.316Z,45.20
2017-06-20T17:44:23.474Z,46.00
2017-06-20T17:46:50.133Z,46.90
2017-06-20T17:49:16.460Z,47.90
2017-06-20T17:51:42.782Z,48.40
2017-06-20T17:54:09.197Z,49.20
2017-06-20T17:56:35.580Z,49.90
2017-06-20T17:59:01.954Z,50.20
2017-06-20T18:01:28.326Z,50.90
2017-06-20T18:03:54.924Z,51.90
2017-06-20T18:06:21.322Z,52.60
2017-06-20T18:08:47.707Z,53.00
2017-06-20T18:11:14.066Z,53.50
2017-06-20T18:13:40.439Z,53.90
2017-06-20T18:16:06.780Z,54.40
2017-06-20T18:18:33.163Z,54.70
2017-06-20T18:20:59.578Z,55.10
2017-06-20T18:23:25.984Z,55.60
2017-06-20T18:25:52.321Z,55.90
2017-06-20T18:28:19.000Z,56.40
2017-06-20T18:30:46.082Z,57.30
2017-06-20T18:33:12.420Z,57.20
2017-06-20T18:35:38.790Z,57.80
2017-06-20T18:38:05.166Z,58.50
2017-06-20T18:40:31.539Z,59.10
2017-06-20T18:43:04.806Z,59.80
2017-06-20T18:45:31.456Z,60.50
2017-06-20T18:47:57.819Z,60.90
2017-06-20T18:50:24.935Z,61.80
2017-06-20T18:52:51.340Z,61.70
2017-06-20T18:55:17.708Z,62.30
2017-06-20T18:57:44.837Z,63.00
2017-06-20T19:00:11.234Z,62.90
2017-06-20T19:02:37.841Z,63.40
2017-06-20T19:05:04.920Z,64.40
2017-06-20T19:07:31.296Z,64.40
2017-06-20T19:09:57.661Z,64.90
2017-06-20T19:12:24.022Z,65.30
2017-06-20T19:14:50.458Z,65.50
2017-06-20T19:17:16.833Z,66.00
2017-06-20T19:19:44.299Z,66.10
2017-06-20T19:22:10.656Z,66.10
2017-06-20T19:24:37.057Z,66.00
2017-06-20T19:27:04.203Z,66.20
2017-06-20T19:29:31.311Z,67.40
2017-06-20T19:31:57.715Z,66.60
2017-06-20T19:34:24.106Z,67.00
2017-06-20T19:36:50.824Z,67.20
2017-06-20T19:39:17.182Z,67.40
2017-06-20T19:41:43.545Z,67.70
2017-06-20T19:44:09.992Z,67.80
2017-06-20T19:46:36.339Z,68.10
2017-06-20T19:49:03.002Z,68.20
2017-06-20T19:51:29.371Z,68.20
2017-06-20T19:53:55.765Z,68.30
2017-06-20T19:56:22.176Z,68.30
2017-06-20T19:58:48.610Z,68.50
2017-06-20T20:01:15.968Z,69.00
2017-06-20T20:03:42.369Z,68.90
2017-06-20T20:06:08.717Z,69.00
2017-06-20T20:08:35.144Z,69.20
2017-06-20T20:11:01.529Z,69.40
2017-06-20T20:13:27.889Z,69.70
2017-06-20T20:15:54.271Z,69.80
2017-06-20T20:18:20.972Z,70.20
2017-06-20T20:20:47.481Z,70.60
2017-06-20T20:23:13.860Z,70.90
2017-06-20T20:25:40.263Z,71.40
2017-06-20T20:28:06.627Z,71.90
2017-06-20T20:30:32.967Z,72.40
2017-06-20T20:32:59.368Z,72.80
2017-06-20T20:35:26.110Z,73.00
2017-06-20T20:37:53.227Z,74.30
2017-06-20T20:40:19.615Z,73.70
2017-06-20T20:42:45.978Z,74.10
2017-06-20T20:45:12.327Z,74.50
2017-06-20T20:47:38.716Z,74.80
2017-06-20T20:50:05.091Z,75.00
2017-06-20T20:52:31.811Z,75.20
2017-06-20T20:54:58.160Z,75.30
2017-06-20T20:57:24.495Z,75.50
2017-06-20T20:59:50.862Z,75.90
2017-06-20T21:02:17.219Z,76.20
2017-06-20T21:04:43.576Z,76.40
2017-06-20T21:07:09.986Z,76.70
2017-06-20T21:09:36.639Z,77.00
2017-06-20T21:12:03.018Z,77.30
2017-06-20T21:14:29.396Z,77.70
2017-06-20T21:16:55.744Z,78.00
2017-06-20T21:19:22.924Z,78.60
2017-06-20T21:21:49.215Z,78.50
2017-06-20T21:24:15.523Z,78.90
2017-06-20T21:26:42.175Z,79.30
2017-06-20T21:29:08.515Z,79.90
2017-06-20T21:31:34.950Z,80.40
2017-06-20T21:34:02.124Z,81.10
2017-06-20T21:36:28.531Z,81.00
2017-06-20T21:38:55.616Z,81.70
2017-06-20T21:41:21.995Z,81.60
2017-06-20T21:43:48.598Z,81.90
2017-06-20T21:46:14.930Z,82.10
2017-06-20T21:48:41.267Z,82.20
2017-06-20T21:51:07.630Z,82.30
2017-06-20T21:53:34.724Z,82.70
2017-06-20T21:56:01.110Z,82.70
2017-06-20T21:58:28.331Z,82.80
2017-06-20T22:00:54.973Z,82.90
2017-06-20T22:03:21.339Z,83.20
2017-06-20T22:05:47.668Z,83.30
2017-06-20T22:08:14.061Z,83.60
2017-06-20T22:10:40.653Z,83.80
2017-06-20T22:13:07.059Z,84.00
2017-06-20T22:15:35.935Z,84.00
2017-06-20T22:18:02.768Z,84.10
2017-06-20T22:20:29.218Z,84.50
2017-06-20T22:22:55.981Z,84.80
2017-06-20T22:25:22.378Z,85.00
2017-06-20T22:27:49.477Z,85.70
2017-06-20T22:30:15.854Z,85.70
2017-06-20T22:32:42.230Z,85.60
2017-06-20T22:35:08.827Z,85.70
2017-06-20T22:37:35.922Z,85.70
2017-06-20T22:40:03.648Z,85.70
2017-06-20T22:42:30.905Z,85.70
2017-06-20T22:44:57.318Z,85.80
2017-06-20T22:47:24.242Z,85.70
2017-06-20T22:49:50.628Z,85.50
2017-06-20T22:52:17.306Z,86.20
2017-06-20T22:54:44.431Z,86.00
2017-06-20T22:57:10.764Z,85.40
2017-06-20T22:59:37.097Z,85.40
2017-06-20T23:02:03.440Z,85.30
2017-06-20T23:04:30.840Z,85.30
2017-06-20T23:06:57.168Z,85.30
2017-06-20T23:09:23.528Z,85.40
2017-06-20T23:11:49.889Z,85.60
2017-06-20T23:14:16.273Z,85.80
2017-06-20T23:16:42.630Z,86.10
2017-06-20T23:19:10.738Z,86.40
2017-06-20T23:21:37.113Z,86.40
2017-06-20T23:24:03.521Z,86.30
2017-06-20T23:26:29.855Z,86.20
2017-06-20T23:28:56.201Z,86.30
2017-06-20T23:31:22.587Z,86.20
2017-06-20T23:33:48.947Z,86.10
2017-06-20T23:36:15.668Z,86.00
2017-06-20T23:38:42.013Z,86.30
2017-06-20T23:41:08.342Z,87.10
2017-06-20T23:43:34.739Z,87.80
2017-06-20T23:46:01.087Z,88.40
2017-06-20T23:48:27.775Z,89.80
2017-06-20T23:50:54.131Z,90.30
2017-06-20T23:53:21.205Z,91.90
2017-06-20T23:55:47.632Z,91.90
2017-06-20T23:58:14.030Z,92.00
